Time;durP1;ratioP1;P1;durP2;ratioP2;P2;SDS_P1;SDS_P2;PMS_P1;PMS_P2;Temp;Humidity;BMP_temperature;BMP_pressure;BME280_temperature;BME280_humidity;BME280_pressure;Samples;Min_cycle;Max_cycle;Signal;HPM_P1;HPM_P2
2021/05/19 00:01:42;;;;;;;1.70;1.60;;;7.70;99.90;;;;;;4749630;30;20078;-82
2021/05/19 00:04:11;;;;;;;1.38;1.17;;;7.70;99.90;;;;;;4750166;30;20068;-81
2021/05/19 00:06:39;;;;;;;1.98;0.88;;;7.60;99.90;;;;;;4736498;30;20055;-82
2021/05/19 00:09:11;;;;;;;1.95;1.40;;;7.60;99.90;;;;;;4743165;30;20051;-82
2021/05/19 00:11:40;;;;;;;1.38;1.27;;;7.60;99.90;;;;;;4733319;30;20607;-81
2021/05/19 00:14:10;;;;;;;1.90;1.80;;;7.60;99.90;;;;;;4717978;30;20051;-82
2021/05/19 00:16:38;;;;;;;6.30;1.20;;;7.60;99.90;;;;;;4717601;30;20411;-82
2021/05/19 00:19:06;;;;;;;2.25;1.13;;;7.70;99.90;;;;;;4732978;30;20518;-83
2021/05/19 00:21:33;;;;;;;2.38;1.10;;;7.60;99.90;;;;;;4749726;30;20056;-82
2021/05/19 00:24:03;;;;;;;1.77;1.50;;;7.50;99.90;;;;;;4751244;30;20060;-81
2021/05/19 00:26:31;;;;;;;1.10;1.00;;;7.50;99.90;;;;;;4751367;30;20056;-82
2021/05/19 00:29:04;;;;;;;1.27;1.23;;;7.60;99.90;;;;;;4751669;30;20074;-82
2021/05/19 00:31:33;;;;;;;0.93;0.93;;;7.50;99.90;;;;;;4752131;30;20063;-82
2021/05/19 00:34:12;;;;;;;1.00;0.95;;;7.40;99.90;;;;;;4737136;30;20052;-82
2021/05/19 00:36:41;;;;;;;1.55;1.45;;;7.50;99.90;;;;;;4735385;30;20056;-81
2021/05/19 00:39:12;;;;;;;1.25;1.15;;;7.50;99.90;;;;;;4752003;30;20411;-81
2021/05/19 00:41:42;;;;;;;2.60;1.20;;;7.50;99.90;;;;;;4750537;30;20059;-82
2021/05/19 00:44:13;;;;;;;1.73;1.58;;;7.40;99.90;;;;;;4751070;30;20087;-81
2021/05/19 00:46:45;;;;;;;1.23;1.13;;;7.40;99.90;;;;;;4745387;30;20068;-82
2021/05/19 00:49:15;;;;;;;1.00;1.00;;;7.40;99.90;;;;;;4734374;30;20290;-82
2021/05/19 00:51:44;;;;;;;0.90;0.90;;;7.40;99.90;;;;;;4735638;30;20056;-82
2021/05/19 00:54:12;;;;;;;1.90;1.30;;;7.40;99.90;;;;;;4750305;30;20056;-82
2021/05/19 00:56:40;;;;;;;1.30;1.20;;;7.40;99.90;;;;;;4751178;30;20518;-81
2021/05/19 00:59:12;;;;;;;1.45;1.27;;;7.40;99.90;;;;;;4735649;30;20414;-81
2021/05/19 01:01:46;;;;;;;1.40;1.30;;;7.40;99.90;;;;;;4749113;30;20060;-82
2021/05/19 01:04:18;;;;;;;1.20;1.20;;;7.30;99.90;;;;;;4748738;30;20072;-82
2021/05/19 01:10:30;;;;;;;1.00;1.00;;;7.30;99.90;;;;;;4749516;30;20403;-82
2021/05/19 01:12:59;;;;;;;1.17;1.08;;;7.30;99.90;;;;;;4750379;30;20049;-82
2021/05/19 01:15:30;;;;;;;1.77;0.88;;;7.40;99.90;;;;;;4739302;30;20058;-82
2021/05/19 01:17:58;;;;;;;2.08;1.38;;;7.40;99.90;;;;;;4752915;30;20063;-83
2021/05/19 01:20:26;;;;;;;1.10;1.10;;;7.40;99.90;;;;;;4752719;30;20044;-83
2021/05/19 01:22:55;;;;;;;1.70;1.60;;;7.40;99.90;;;;;;4737066;30;20056;-82
2021/05/19 01:25:23;;;;;;;1.48;1.38;;;7.40;99.90;;;;;;4752558;30;20044;-82
2021/05/19 01:27:57;;;;;;;1.30;1.20;;;7.40;99.90;;;;;;4736874;30;20064;-82
2021/05/19 01:30:26;;;;;;;1.85;1.38;;;7.40;99.90;;;;;;4752902;30;20055;-82
2021/05/19 01:32:55;;;;;;;3.00;1.33;;;7.40;99.90;;;;;;4737135;30;20472;-83
2021/05/19 01:35:23;;;;;;;0.85;0.85;;;7.50;99.90;;;;;;4753773;30;20060;-82
2021/05/19 01:37:51;;;;;;;1.67;1.30;;;7.50;99.90;;;;;;4736867;30;20396;-83
2021/05/19 01:40:22;;;;;;;1.92;1.83;;;7.60;99.90;;;;;;4736224;30;20071;-82
2021/05/19 01:42:51;;;;;;;3.90;1.10;;;7.50;99.90;;;;;;4737230;30;20063;-82
2021/05/19 01:45:38;;;;;;;1.33;1.23;;;7.60;99.90;;;;;;4736998;30;20056;-83
2021/05/19 01:48:11;;;;;;;1.95;1.10;;;7.60;99.90;;;;;;4752692;30;20071;-81
2021/05/19 01:50:42;;;;;;;1.77;1.20;;;7.60;99.90;;;;;;4752693;30;20068;-83
2021/05/19 01:53:12;;;;;;;0.77;0.77;;;7.60;99.90;;;;;;4736403;30;20056;-82
2021/05/19 01:55:40;;;;;;;2.25;1.08;;;7.60;99.90;;;;;;4737115;30;20071;-82
2021/05/19 01:58:12;;;;;;;2.20;1.02;;;7.60;99.90;;;;;;4736788;30;20057;-81
2021/05/19 02:00:40;;;;;;;1.08;1.00;;;7.60;99.90;;;;;;4736552;30;20061;-83
2021/05/19 02:03:09;;;;;;;1.17;1.08;;;7.60;99.90;;;;;;4752207;30;20056;-82
2021/05/19 02:05:55;;;;;;;1.95;1.30;;;7.50;99.90;;;;;;4752854;30;20055;-83
2021/05/19 02:08:29;;;;;;;1.50;1.40;;;7.50;99.90;;;;;;4752517;30;20048;-81
2021/05/19 02:10:57;;;;;;;0.77;0.77;;;7.50;99.90;;;;;;4736758;30;20063;-82
2021/05/19 02:13:28;;;;;;;;;;;7.50;99.90;;;;;;4737103;30;20051;-82
2021/05/19 02:15:56;;;;;;;0.93;0.90;;;7.50;99.90;;;;;;4754428;30;19926;-83
2021/05/19 02:18:25;;;;;;;1.55;1.45;;;7.50;99.90;;;;;;4752433;30;20056;-82
2021/05/19 02:20:53;;;;;;;1.00;0.88;;;7.50;99.90;;;;;;4736619;30;20060;-82
2021/05/19 02:23:21;;;;;;;1.40;1.35;;;7.50;99.90;;;;;;4736842;30;20484;-82
2021/05/19 02:25:49;;;;;;;0.85;0.85;;;7.50;99.90;;;;;;4736357;30;20500;-82
2021/05/19 02:28:18;;;;;;;1.08;1.00;;;7.40;99.90;;;;;;4736969;30;20609;-81
2021/05/19 02:30:49;;;;;;;1.08;0.98;;;7.50;99.90;;;;;;4753849;30;20064;-82
2021/05/19 02:33:21;;;;;;;1.10;1.00;;;7.50;99.90;;;;;;4736904;30;20064;-82
2021/05/19 02:35:53;;;;;;;1.23;1.13;;;7.50;99.90;;;;;;4731050;30;20428;-82
2021/05/19 02:38:22;;;;;;;1.27;1.17;;;7.50;99.90;;;;;;4704478;30;20522;-82
2021/05/19 02:40:52;;;;;;;0.90;0.90;;;7.50;99.90;;;;;;4711192;30;20052;-82
2021/05/19 02:43:20;;;;;;;1.08;1.08;;;7.50;99.90;;;;;;4736670;30;20063;-82
2021/05/19 02:45:49;;;;;;;1.58;1.23;;;7.40;99.90;;;;;;4736470;30;20044;-82
2021/05/19 02:48:17;;;;;;;0.90;0.90;;;7.40;99.90;;;;;;4751593;30;20063;-82
2021/05/19 02:50:45;;;;;;;1.30;1.20;;;7.40;99.90;;;;;;4721482;30;20064;-82
2021/05/19 02:53:13;;;;;;;1.25;1.05;;;7.40;99.90;;;;;;4735514;30;20495;-81
2021/05/19 02:55:40;;;;;;;1.67;1.58;;;7.40;99.90;;;;;;4752122;30;20130;-81
2021/05/19 02:58:08;;;;;;;1.23;1.13;;;7.40;99.90;;;;;;4751420;30;20512;-81
2021/05/19 03:00:36;;;;;;;1.08;0.98;;;7.40;99.90;;;;;;4751321;30;20052;-82
2021/05/19 03:03:04;;;;;;;1.30;0.90;;;7.40;99.90;;;;;;4735673;30;20056;-81
2021/05/19 03:05:33;;;;;;;2.42;1.10;;;7.50;99.90;;;;;;4750950;30;20060;-81
2021/05/19 03:08:01;;;;;;;1.35;1.13;;;7.50;99.90;;;;;;4751338;30;20071;-82
2021/05/19 03:10:29;;;;;;;0.93;0.93;;;7.50;99.90;;;;;;4734883;30;20052;-81
2021/05/19 03:12:57;;;;;;;3.25;1.95;;;7.50;99.90;;;;;;4732007;30;20048;-81
2021/05/19 03:15:26;;;;;;;3.38;1.42;;;7.50;99.90;;;;;;4734087;30;20154;-80
2021/05/19 03:17:55;;;;;;;1.20;1.10;;;7.50;99.90;;;;;;4732868;30;20053;-81
2021/05/19 03:20:23;;;;;;;1.98;1.23;;;7.50;99.90;;;;;;4732188;30;20049;-82
2021/05/19 03:22:51;;;;;;;4.78;1.10;;;7.50;99.90;;;;;;4732821;30;20507;-82
2021/05/19 03:25:19;;;;;;;0.98;0.98;;;7.40;99.90;;;;;;4733500;30;20429;-81
2021/05/19 03:27:47;;;;;;;1.60;1.10;;;7.50;99.90;;;;;;4741152;30;20068;-82
2021/05/19 03:30:16;;;;;;;1.17;0.88;;;7.60;99.90;;;;;;4744894;30;20052;-81
2021/05/19 03:32:44;;;;;;;2.53;2.40;;;7.50;99.90;;;;;;4732734;30;20512;-81
2021/05/19 03:35:12;;;;;;;1.23;1.13;;;7.50;99.90;;;;;;4748577;30;20052;-82
2021/05/19 03:37:41;;;;;;;1.85;1.15;;;7.50;99.90;;;;;;4716583;30;20053;-80
2021/05/19 03:40:11;;;;;;;1.13;1.00;;;7.50;99.90;;;;;;4732894;30;20068;-82
2021/05/19 03:42:39;;;;;;;1.70;1.60;;;7.50;99.90;;;;;;4738930;30;20063;-82
2021/05/19 03:45:10;;;;;;;1.88;1.30;;;7.50;99.90;;;;;;4733998;30;20522;-82
2021/05/19 03:47:38;;;;;;;1.10;1.00;;;7.50;99.90;;;;;;4750767;30;20534;-82
2021/05/19 03:50:09;;;;;;;1.30;1.20;;;7.50;99.90;;;;;;4734387;30;20442;-80
2021/05/19 03:52:37;;;;;;;1.25;1.15;;;7.50;99.90;;;;;;4749694;30;20044;-83
2021/05/19 03:55:08;;;;;;;1.08;1.08;;;7.50;99.90;;;;;;4734808;30;20403;-80
2021/05/19 03:57:37;;;;;;;1.38;1.20;;;7.50;99.90;;;;;;4750007;30;20100;-81
2021/05/19 04:00:09;;;;;;;1.80;1.10;;;7.50;99.90;;;;;;4749560;30;20068;-81
2021/05/19 04:02:40;;;;;;;2.10;1.73;;;7.50;99.90;;;;;;4735117;30;20063;-81
2021/05/19 04:05:09;;;;;;;1.55;1.45;;;7.60;99.90;;;;;;4719856;30;20063;-81
2021/05/19 04:07:36;;;;;;;1.85;1.75;;;7.60;99.90;;;;;;4749978;30;20116;-80
2021/05/19 04:10:05;;;;;;;1.83;1.73;;;7.60;99.90;;;;;;4734100;30;20067;-80
2021/05/19 04:12:33;;;;;;;1.40;1.30;;;7.60;99.90;;;;;;4748586;30;20658;-82
2021/05/19 04:15:01;;;;;;;5.30;2.20;;;7.60;99.90;;;;;;4735209;30;20411;-80
2021/05/19 04:17:28;;;;;;;1.98;1.88;;;7.60;99.90;;;;;;4748493;30;20068;-82
2021/05/19 04:19:56;;;;;;;2.60;1.63;;;7.60;99.90;;;;;;4719994;30;20056;-82
2021/05/19 04:22:25;;;;;;;1.40;1.30;;;7.60;99.90;;;;;;4718562;30;20060;-81
2021/05/19 04:24:52;;;;;;;3.88;1.75;;;7.60;99.90;;;;;;4749799;30;20141;-80
2021/05/19 04:27:21;;;;;;;1.30;1.20;;;7.60;99.90;;;;;;4734372;30;20056;-81
2021/05/19 04:29:49;;;;;;;3.97;1.73;;;7.60;99.90;;;;;;4748808;30;20059;-82
2021/05/19 04:32:17;;;;;;;1.40;1.23;;;7.60;99.90;;;;;;4749653;30;20068;-80
2021/05/19 04:34:46;;;;;;;1.77;1.55;;;7.60;99.90;;;;;;4750330;30;20067;-80
2021/05/19 04:37:14;;;;;;;1.55;1.45;;;7.60;99.90;;;;;;4732870;30;20059;-80
2021/05/19 04:39:42;;;;;;;1.95;1.67;;;7.60;99.90;;;;;;4734342;30;20048;-80
2021/05/19 04:42:10;;;;;;;1.98;1.70;;;7.60;99.90;;;;;;4733487;30;20044;-81
2021/05/19 04:44:38;;;;;;;3.10;2.80;;;7.60;99.90;;;;;;4749464;30;20059;-81
2021/05/19 04:47:06;;;;;;;1.70;1.40;;;7.60;99.90;;;;;;4731168;30;20393;-82
2021/05/19 04:49:34;;;;;;;4.10;1.80;;;7.60;99.90;;;;;;4734454;30;20060;-82
2021/05/19 04:52:02;;;;;;;2.17;2.00;;;7.60;99.90;;;;;;4734900;30;20075;-81
2021/05/19 04:54:30;;;;;;;2.65;2.42;;;7.60;99.90;;;;;;4717982;30;20061;-82
2021/05/19 04:56:58;;;;;;;2.00;1.90;;;7.60;99.90;;;;;;4742056;30;20041;-82
2021/05/19 04:59:26;;;;;;;2.25;1.83;;;7.70;99.90;;;;;;4752844;30;20064;-81
2021/05/19 05:01:54;;;;;;;2.30;1.80;;;7.60;99.90;;;;;;4750864;30;20052;-79
2021/05/19 05:04:22;;;;;;;2.65;2.25;;;7.60;99.90;;;;;;4750701;30;20044;-81
2021/05/19 05:06:50;;;;;;;1.60;1.50;;;7.60;99.90;;;;;;4752434;30;20277;-79
2021/05/19 05:09:18;;;;;;;1.50;1.40;;;7.60;99.90;;;;;;4748379;30;20063;-83
2021/05/19 05:11:45;;;;;;;1.35;1.25;;;7.60;99.90;;;;;;4751623;30;20056;-80
2021/05/19 05:14:13;;;;;;;1.63;1.38;;;7.60;99.90;;;;;;4751846;30;20504;-81
2021/05/19 05:16:41;;;;;;;2.70;1.67;;;7.50;99.90;;;;;;4735553;30;20063;-80
2021/05/19 05:19:09;;;;;;;1.67;1.38;;;7.40;99.90;;;;;;4751304;30;20060;-80
2021/05/19 05:21:37;;;;;;;4.43;2.20;;;7.30;99.90;;;;;;4734858;30;20044;-82
2021/05/19 05:24:06;;;;;;;1.27;1.25;;;7.20;99.90;;;;;;4704871;30;20056;-83
2021/05/19 05:26:34;;;;;;;1.85;1.65;;;7.30;99.90;;;;;;4752230;30;20068;-81
2021/05/19 05:29:02;;;;;;;1.85;1.73;;;7.40;99.90;;;;;;4751526;30;20048;-82
2021/05/19 05:31:30;;;;;;;2.20;2.03;;;7.40;99.90;;;;;;4731371;30;20514;-81
2021/05/19 05:33:58;;;;;;;2.30;2.10;;;7.40;99.90;;;;;;4734153;30;20062;-78
2021/05/19 05:36:26;;;;;;;2.95;2.22;;;7.40;99.90;;;;;;4744141;30;20387;-80
2021/05/19 05:38:54;;;;;;;3.22;2.90;;;7.50;99.90;;;;;;4734518;30;20062;-79
2021/05/19 05:41:22;;;;;;;2.83;2.53;;;7.50;99.90;;;;;;4723674;30;20055;-81
2021/05/19 05:43:49;;;;;;;2.40;2.22;;;7.40;99.90;;;;;;4752192;30;20056;-80
2021/05/19 05:46:17;;;;;;;2.75;2.20;;;7.50;99.90;;;;;;4735474;30;20036;-80
2021/05/19 05:48:46;;;;;;;2.65;2.45;;;7.40;99.90;;;;;;4735090;30;20488;-80
2021/05/19 05:51:13;;;;;;;6.63;2.65;;;7.30;99.90;;;;;;4720271;30;20044;-80
2021/05/19 05:53:42;;;;;;;2.42;2.20;;;7.40;99.90;;;;;;4748192;30;20048;-80
2021/05/19 05:56:10;;;;;;;3.08;2.28;;;7.40;99.90;;;;;;4720638;30;20393;-80
2021/05/19 05:58:42;;;;;;;4.32;2.55;;;7.40;99.90;;;;;;4750994;30;20071;-78
2021/05/19 06:01:10;;;;;;;4.05;2.78;;;7.40;99.90;;;;;;4749752;30;20055;-79
2021/05/19 06:03:38;;;;;;;3.65;3.35;;;7.40;99.90;;;;;;4735532;30;20059;-79
2021/05/19 06:06:07;;;;;;;3.22;3.00;;;7.40;99.90;;;;;;4751161;30;20180;-80
2021/05/19 06:08:34;;;;;;;2.85;2.47;;;7.40;99.90;;;;;;4722789;30;20052;-80
2021/05/19 06:11:07;;;;;;;3.28;2.42;;;7.40;99.90;;;;;;4748341;30;20068;-81
2021/05/19 06:13:35;;;;;;;2.67;2.47;;;7.50;99.90;;;;;;4750308;30;20079;-79
2021/05/19 06:16:04;;;;;;;5.13;2.65;;;7.50;99.90;;;;;;4750759;30;20526;-77
2021/05/19 06:18:32;;;;;;;1.95;1.83;;;7.40;99.90;;;;;;4734185;30;20064;-79
2021/05/19 06:21:00;;;;;;;6.32;1.92;;;7.40;99.90;;;;;;4736666;30;20138;-79
2021/05/19 06:23:28;;;;;;;2.17;2.08;;;7.40;99.90;;;;;;4747229;30;20063;-79
2021/05/19 06:25:56;;;;;;;3.47;2.60;;;7.40;99.90;;;;;;4751177;30;20048;-80
2021/05/19 06:28:25;;;;;;;2.15;1.73;;;7.40;99.90;;;;;;4736216;30;20051;-80
2021/05/19 06:30:55;;;;;;;1.92;1.83;;;7.40;99.90;;;;;;4750015;30;20056;-80
2021/05/19 06:33:23;;;;;;;3.30;3.00;;;7.30;99.90;;;;;;4733737;30;20052;-79
2021/05/19 06:35:51;;;;;;;3.88;2.25;;;7.40;99.90;;;;;;4713849;30;20053;-79
2021/05/19 06:38:19;;;;;;;3.35;2.13;;;7.40;99.90;;;;;;4740466;30;20059;-80
2021/05/19 06:40:47;;;;;;;3.08;2.88;;;7.40;99.90;;;;;;4754067;30;20044;-81
2021/05/19 06:43:15;;;;;;;3.10;2.45;;;7.40;99.90;;;;;;4753683;30;20063;-79
2021/05/19 06:45:43;;;;;;;2.80;2.45;;;7.40;99.90;;;;;;4737195;30;20055;-81
2021/05/19 06:48:11;;;;;;;5.85;2.92;;;7.50;99.90;;;;;;4752395;30;20071;-81
2021/05/19 06:50:39;;;;;;;3.13;2.83;;;7.60;99.90;;;;;;4752440;30;20094;-82
2021/05/19 06:53:07;;;;;;;4.13;3.28;;;7.70;99.90;;;;;;4751657;30;20077;-81
2021/05/19 06:55:35;;;;;;;2.50;2.30;;;7.90;99.90;;;;;;4751717;30;20412;-79
2021/05/19 06:58:03;;;;;;;2.95;2.53;;;8.00;99.90;;;;;;4752293;30;20045;-80
2021/05/19 07:00:31;;;;;;;3.65;2.53;;;8.30;99.90;;;;;;4751706;30;20503;-80
2021/05/19 07:02:59;;;;;;;4.82;4.30;;;8.30;99.90;;;;;;4735870;30;20060;-80
2021/05/19 07:05:27;;;;;;;3.42;3.17;;;8.40;99.90;;;;;;4751626;30;20056;-81
2021/05/19 07:07:55;;;;;;;4.00;3.65;;;8.30;99.90;;;;;;4736887;30;20056;-81
2021/05/19 07:10:23;;;;;;;5.50;4.20;;;8.20;99.90;;;;;;4750831;30;20060;-80
2021/05/19 07:12:51;;;;;;;4.10;3.80;;;8.20;99.90;;;;;;4751994;30;20048;-80
2021/05/19 07:15:19;;;;;;;5.07;4.57;;;8.30;99.90;;;;;;4751515;30;20063;-81
2021/05/19 07:17:47;;;;;;;4.82;4.20;;;8.30;99.90;;;;;;4751102;30;20060;-80
2021/05/19 07:20:15;;;;;;;24.67;6.20;;;8.40;99.90;;;;;;4750881;30;20063;-82
2021/05/19 07:22:43;;;;;;;4.50;3.75;;;8.40;99.90;;;;;;4751221;30;20070;-82
2021/05/19 07:25:11;;;;;;;6.32;5.55;;;8.50;99.90;;;;;;4751299;30;20056;-80
2021/05/19 07:27:39;;;;;;;5.75;4.78;;;8.70;99.90;;;;;;4751316;30;20570;-79
2021/05/19 07:30:08;;;;;;;4.78;4.38;;;8.80;99.90;;;;;;4749176;30;20060;-79
2021/05/19 07:32:35;;;;;;;7.32;4.20;;;8.80;99.90;;;;;;4751911;30;20055;-83
2021/05/19 07:35:04;;;;;;;5.90;4.22;;;8.90;99.90;;;;;;4751252;30;20087;-81
2021/05/19 07:37:32;;;;;;;4.72;4.32;;;8.80;99.90;;;;;;4747825;30;20475;-81
2021/05/19 07:40:00;;;;;;;3.63;3.10;;;8.60;99.90;;;;;;4733715;30;20056;-81
2021/05/19 07:42:28;;;;;;;7.45;5.82;;;8.40;99.90;;;;;;4747951;30;20419;-81
2021/05/19 07:44:57;;;;;;;6.40;5.32;;;8.40;99.90;;;;;;4750202;30;20055;-81
2021/05/19 07:47:24;;;;;;;7.07;4.32;;;8.30;99.90;;;;;;4749689;30;20051;-81
2021/05/19 07:49:51;;;;;;;10.88;5.75;;;8.50;99.90;;;;;;4749843;30;20048;-81
2021/05/19 07:52:19;;;;;;;5.00;4.57;;;8.70;99.90;;;;;;4734057;30;20040;-81
2021/05/19 07:54:47;;;;;;;7.80;5.65;;;8.90;99.90;;;;;;4750773;30;20121;-81
2021/05/19 07:59:43;;;;;;;4.80;4.05;;;9.10;99.90;;;;;;4749698;30;20410;-81
2021/05/19 08:02:12;;;;;;;6.30;5.22;;;9.00;99.90;;;;;;4734348;30;20044;-80
2021/05/19 08:04:39;;;;;;;5.65;5.10;;;8.90;99.90;;;;;;4731274;30;20067;-80
2021/05/19 08:07:07;;;;;;;5.25;4.70;;;8.90;99.90;;;;;;4724975;30;20049;-79
2021/05/19 08:09:34;;;;;;;5.43;4.50;;;9.00;99.90;;;;;;4727140;30;20412;-81
2021/05/19 08:12:01;;;;;;;5.63;5.13;;;9.00;99.90;;;;;;4734662;30;20066;-80
2021/05/19 08:14:30;;;;;;;4.85;4.47;;;9.00;99.90;;;;;;4732088;30;20415;-80
2021/05/19 08:16:57;;;;;;;5.55;5.00;;;9.10;99.90;;;;;;4733854;30;20051;-80
2021/05/19 08:19:24;;;;;;;4.20;3.88;;;9.10;99.90;;;;;;4733770;30;20048;-80
2021/05/19 08:21:52;;;;;;;5.20;4.70;;;9.20;99.90;;;;;;4729852;30;20056;-82
2021/05/19 08:24:20;;;;;;;4.95;4.45;;;9.20;99.90;;;;;;4730649;30;20498;-81
2021/05/19 08:26:48;;;;;;;6.55;4.80;;;9.10;99.90;;;;;;4732298;30;20068;-79
2021/05/19 08:29:25;;;;;;;8.43;5.32;;;9.10;99.90;;;;;;4732042;30;20404;-81
2021/05/19 08:31:52;;;;;;;8.98;6.10;;;9.00;99.90;;;;;;4730978;30;20060;-80
2021/05/19 08:34:20;;;;;;;4.93;4.53;;;8.90;99.90;;;;;;4731753;30;20457;-79
2021/05/19 08:36:48;;;;;;;5.60;5.07;;;9.00;99.90;;;;;;4732190;30;20057;-80
2021/05/19 08:39:18;;;;;;;5.22;4.50;;;9.00;99.90;;;;;;4730216;30;20056;-80
2021/05/19 08:41:47;;;;;;;5.28;4.70;;;9.10;99.90;;;;;;4729383;30;20075;-80
2021/05/19 08:44:16;;;;;;;5.85;5.35;;;9.30;99.90;;;;;;4731514;30;20416;-80
2021/05/19 08:46:46;;;;;;;5.75;4.88;;;9.30;99.90;;;;;;4732012;30;20056;-81
2021/05/19 08:49:15;;;;;;;7.25;4.50;;;9.50;99.90;;;;;;4730900;30;20071;-80
2021/05/19 08:51:44;;;;;;;7.43;5.63;;;9.70;99.90;;;;;;4717112;30;20061;-82
2021/05/19 08:54:12;;;;;;;6.50;5.93;;;9.90;99.90;;;;;;4730025;30;20053;-81
2021/05/19 08:56:43;;;;;;;8.43;5.68;;;10.10;99.90;;;;;;4731562;30;20056;-81
2021/05/19 08:59:14;;;;;;;6.18;5.57;;;10.10;99.90;;;;;;4732734;30;20060;-81
2021/05/19 09:01:43;;;;;;;6.18;5.18;;;10.10;99.90;;;;;;4732106;30;20416;-81
2021/05/19 09:04:24;;;;;;;11.05;5.78;;;10.00;99.90;;;;;;4731081;30;20065;-81
2021/05/19 09:06:59;;;;;;;6.15;5.25;;;9.70;99.90;;;;;;4732656;30;20072;-81
2021/05/19 09:09:35;;;;;;;5.53;5.03;;;9.30;99.90;;;;;;4730451;30;20326;-78
2021/05/19 09:12:12;;;;;;;7.25;6.32;;;8.70;99.90;;;;;;4729447;30;20503;-78
2021/05/19 09:15:05;;;;;;;6.70;5.45;;;8.30;99.90;;;;;;4730430;30;20064;-78
2021/05/19 09:17:34;;;;;;;7.97;6.40;;;8.10;99.90;;;;;;4729847;30;20053;-77
2021/05/19 09:20:11;;;;;;;7.07;6.38;;;8.00;99.90;;;;;;4728144;30;20049;-79
2021/05/19 09:22:46;;;;;;;11.05;8.30;;;8.10;99.90;;;;;;4728907;30;20072;-81
2021/05/19 09:25:16;;;;;;;11.73;7.57;;;8.20;99.90;;;;;;4730435;30;20373;-80
2021/05/19 09:27:49;;;;;;;6.45;5.65;;;8.30;99.90;;;;;;4729191;30;20438;-82
2021/05/19 09:30:35;;;;;;;7.88;7.10;;;8.30;99.90;;;;;;4725521;30;20086;-81
2021/05/19 09:33:21;;;;;;;6.88;5.57;;;8.20;99.90;;;;;;4715173;30;20408;-81
2021/05/19 09:36:12;;;;;;;7.50;5.75;;;8.00;99.90;;;;;;4718445;30;20075;-78
2021/05/19 09:38:41;;;;;;;6.93;6.03;;;8.00;99.90;;;;;;4700186;30;20053;-80
2021/05/19 09:41:15;;;;;;;7.97;5.95;;;8.10;99.90;;;;;;4716802;30;20068;-79
2021/05/19 09:43:43;;;;;;;8.07;5.97;;;8.20;99.90;;;;;;4716413;30;20065;-80
2021/05/19 09:49:16;;;;;;;8.88;6.88;;;8.60;99.90;;;;;;4717165;30;20068;-81
2021/05/19 09:51:53;;;;;;;9.23;8.27;;;8.80;99.90;;;;;;4716170;30;20381;-82
2021/05/19 09:54:28;;;;;;;28.48;8.90;;;9.00;99.90;;;;;;4719951;30;20045;-81
2021/05/19 09:57:02;;;;;;;11.13;7.97;;;9.20;99.90;;;;;;4727949;30;20435;-80
2021/05/19 09:59:33;;;;;;;10.68;7.90;;;9.50;99.90;;;;;;4732404;30;20057;-82
2021/05/19 10:02:04;;;;;;;9.23;7.93;;;9.90;99.90;;;;;;4717144;30;20061;-82
2021/05/19 10:04:39;;;;;;;8.55;7.75;;;10.10;99.90;;;;;;4719646;30;20105;-81
2021/05/19 10:07:13;;;;;;;8.18;7.35;;;10.10;99.90;;;;;;4750541;30;20063;-83
2021/05/19 10:09:41;;;;;;;8.68;7.50;;;10.20;99.90;;;;;;4752577;30;20052;-82
2021/05/19 10:12:12;;;;;;;12.35;8.88;;;9.90;99.90;;;;;;4735074;30;20423;-79
2021/05/19 10:14:41;;;;;;;7.30;6.60;;;9.70;99.90;;;;;;4734635;30;20060;-80
2021/05/19 10:17:11;;;;;;;9.07;7.32;;;9.50;99.90;;;;;;4733817;30;20053;-80
2021/05/19 10:19:44;;;;;;;10.93;7.30;;;9.60;99.90;;;;;;4734509;30;20574;-79
2021/05/19 10:22:14;;;;;;;7.05;6.10;;;9.80;99.90;;;;;;4732843;30;20054;-81
2021/05/19 10:25:00;;;;;;;7.93;6.25;;;9.90;99.90;;;;;;4733085;30;20076;-83
2021/05/19 10:27:47;;;;;;;8.00;7.20;;;9.90;99.90;;;;;;4734146;30;20055;-79
2021/05/19 10:30:39;;;;;;;9.43;7.40;;;10.10;99.90;;;;;;4733076;30;20075;-80
2021/05/19 10:33:30;;;;;;;8.27;7.43;;;10.30;99.90;;;;;;4733341;30;20045;-80
2021/05/19 10:36:24;;;;;;;8.07;7.38;;;10.50;99.90;;;;;;4738276;30;20056;-79
2021/05/19 10:39:08;;;;;;;7.50;6.80;;;10.90;99.90;;;;;;4718295;30;20060;-80
2021/05/19 10:41:36;;;;;;;8.63;7.80;;;11.10;99.90;;;;;;4743109;30;20056;-79
2021/05/19 10:44:09;;;;;;;12.00;7.63;;;11.20;99.90;;;;;;4750666;30;20077;-80
2021/05/19 10:46:57;;;;;;;8.98;7.50;;;11.50;99.90;;;;;;4744394;30;20063;-79
2021/05/19 10:49:50;;;;;;;10.75;7.35;;;11.60;99.90;;;;;;4738900;30;20073;-79
2021/05/19 10:58:28;;;;;;;8.00;7.20;;;12.30;99.90;;;;;;4745200;30;20549;-86
2021/05/19 11:00:55;;;;;;;8.70;7.43;;;12.20;99.90;;;;;;4730864;30;20487;-81
2021/05/19 11:03:25;;;;;;;9.93;6.88;;;12.10;99.90;;;;;;4733233;30;20061;-82
2021/05/19 11:05:53;;;;;;;7.18;5.97;;;11.80;99.90;;;;;;4702969;30;20068;-80
2021/05/19 11:08:28;;;;;;;9.20;6.82;;;11.60;99.90;;;;;;4749340;30;20056;-80
2021/05/19 11:11:15;;;;;;;7.20;5.85;;;11.50;99.90;;;;;;4734296;30;20443;-81
2021/05/19 11:14:45;;;;;;;9.15;8.23;;;11.60;99.90;;;;;;4725564;30;20060;-81
2021/05/19 11:17:11;;;;;;;8.15;7.45;;;11.60;99.90;;;;;;4735327;30;20056;-81
2021/05/19 11:19:40;;;;;;;9.45;8.55;;;11.50;99.90;;;;;;4749602;30;20072;-81
2021/05/19 11:22:11;;;;;;;;;;;11.30;99.90;;;;;;4745053;30;20055;-82
2021/05/19 11:24:57;;;;;;;6.78;6.13;;;11.00;99.90;;;;;;4748767;30;20226;-82
2021/05/19 11:27:29;;;;;;;7.80;7.05;;;10.70;99.90;;;;;;4752620;30;20412;-80
2021/05/19 11:29:58;;;;;;;13.00;6.93;;;10.50;99.90;;;;;;4730595;30;20415;-81
2021/05/19 11:32:29;;;;;;;11.60;6.80;;;10.30;99.90;;;;;;4732219;30;20040;-83
2021/05/19 11:35:12;;;;;;;3.17;2.88;;;9.70;99.90;;;;;;4717569;30;20057;-82
2021/05/19 11:38:02;;;;;;;5.25;3.00;;;9.00;99.90;;;;;;4744265;30;20048;-82
2021/05/19 11:40:50;;;;;;;3.58;3.28;;;8.40;99.90;;;;;;4750013;30;20609;-80
2021/05/19 11:43:23;;;;;;;2.35;2.13;;;8.20;99.90;;;;;;4734646;30;20081;-79
2021/05/19 11:45:58;;;;;;;3.55;2.75;;;8.10;99.90;;;;;;4748816;30;20068;-80
2021/05/19 11:48:30;;;;;;;5.35;3.67;;;8.30;99.90;;;;;;4746319;30;20048;-80
2021/05/19 11:51:18;;;;;;;;;;;8.30;99.90;;;;;;4733074;30;20076;-80
2021/05/19 11:54:00;;;;;;;6.20;5.68;;;8.50;99.90;;;;;;4715995;30;19927;-81
2021/05/19 11:56:41;;;;;;;7.57;6.78;;;8.70;99.90;;;;;;4702030;30;20431;-81
2021/05/19 11:59:21;;;;;;;7.43;6.82;;;8.90;99.90;;;;;;4714746;30;20511;-81
2021/05/19 12:01:56;;;;;;;8.85;6.95;;;9.10;99.90;;;;;;4730209;30;20057;-80
2021/05/19 12:04:26;;;;;;;7.75;5.90;;;9.10;99.90;;;;;;4713156;30;20040;-80
2021/05/19 12:06:55;;;;;;;7.75;6.20;;;9.20;99.90;;;;;;4722553;30;20061;-81
2021/05/19 12:09:23;;;;;;;5.97;5.35;;;9.40;99.90;;;;;;4720825;30;20055;-80
2021/05/19 12:11:51;;;;;;;7.30;6.07;;;9.50;99.90;;;;;;4733160;30;20068;-79
2021/05/19 12:14:19;;;;;;;7.55;5.78;;;9.50;99.90;;;;;;4749467;30;20052;-80
2021/05/19 12:16:48;;;;;;;6.03;5.43;;;9.50;99.90;;;;;;4747601;30;20067;-80
2021/05/19 12:19:28;;;;;;;8.57;6.35;;;9.60;99.90;;;;;;4732289;30;20053;-80
2021/05/19 12:22:11;;;;;;;6.90;6.07;;;9.70;99.90;;;;;;4745525;30;20048;-80
2021/05/19 12:24:41;;;;;;;9.32;5.75;;;10.00;99.90;;;;;;4730847;30;20051;-80
2021/05/19 12:27:10;;;;;;;8.88;6.18;;;10.20;99.90;;;;;;4748001;30;20448;-81
2021/05/19 12:29:42;;;;;;;6.63;5.80;;;10.40;99.90;;;;;;4745207;30;20419;-81
2021/05/19 12:32:23;;;;;;;6.00;5.43;;;10.50;99.90;;;;;;4716575;30;20056;-85
2021/05/19 12:35:04;;;;;;;9.18;5.93;;;11.20;99.90;;;;;;4716123;30;20060;-86
2021/05/19 12:37:38;;;;;;;6.40;5.38;;;11.60;99.90;;;;;;4709839;30;20057;-84
2021/05/19 12:40:10;;;;;;;4.35;3.95;;;11.90;99.90;;;;;;4730714;30;20071;-84
2021/05/19 12:42:46;;;;;;;7.55;4.32;;;11.80;99.90;;;;;;4731857;30;20059;-83
2021/05/19 12:45:15;;;;;;;5.45;4.75;;;11.60;99.90;;;;;;4717716;30;20052;-84
2021/05/19 12:47:44;;;;;;;6.28;5.78;;;11.90;99.90;;;;;;4722770;30;20060;-83
2021/05/19 12:50:14;;;;;;;5.25;4.85;;;12.10;99.90;;;;;;4744512;30;20048;-86
2021/05/19 12:52:42;;;;;;;5.07;4.43;;;12.30;99.90;;;;;;4746488;30;20056;-86
2021/05/19 12:55:11;;;;;;;5.32;4.88;;;12.50;99.90;;;;;;4732507;30;20063;-85
2021/05/19 12:57:40;;;;;;;8.20;4.32;;;12.30;99.90;;;;;;4746545;30;20503;-84
2021/05/19 13:00:16;;;;;;;5.38;4.00;;;12.20;99.90;;;;;;4716196;30;20064;-85
2021/05/19 13:02:48;;;;;;;5.30;4.65;;;11.90;99.90;;;;;;4731334;30;20537;-83
2021/05/19 13:05:22;;;;;;;3.83;3.53;;;12.10;99.90;;;;;;4746315;30;20430;-86
2021/05/19 13:07:51;;;;;;;4.85;4.18;;;12.30;99.90;;;;;;4719494;30;20542;-86
2021/05/19 13:10:31;;;;;;;4.00;3.70;;;12.50;99.90;;;;;;4733304;30;20044;-84
2021/05/19 13:13:43;;;;;;;3.25;3.05;;;12.70;99.90;;;;;;4734784;30;20139;-85
2021/05/19 13:16:30;;;;;;;3.92;3.63;;;12.70;99.90;;;;;;4751083;30;20060;-83
2021/05/19 13:19:06;;;;;;;3.65;3.35;;;12.30;99.90;;;;;;4735210;30;20052;-85
2021/05/19 13:21:46;;;;;;;4.07;3.55;;;11.70;99.90;;;;;;4748344;30;20063;-86
2021/05/19 13:24:22;;;;;;;4.05;3.75;;;11.20;99.90;;;;;;4719023;30;20060;-86
2021/05/19 13:26:54;;;;;;;3.53;3.22;;;11.10;99.90;;;;;;4736236;30;20060;-84
2021/05/19 13:29:29;;;;;;;2.55;2.35;;;10.70;99.90;;;;;;4706251;30;20048;-85
2021/05/19 13:36:12;;;;;;;3.58;2.50;;;10.60;99.90;;;;;;4735284;30;20056;-86